sensor_id;sensor_type;location;lat;lon;timestamp;pressure;altitude;pressure_sealevel;temperature;humidity
40850;BME280;26571;41.610;25.380;2022-11-04T00:01:33;98621.31;;;11.82;61.71
40850;BME280;26571;41.610;25.380;2022-11-04T00:04:01;98618.53;;;11.84;61.82
40850;BME280;26571;41.610;25.380;2022-11-04T00:06:27;98618.00;;;11.80;61.42
40850;BME280;26571;41.610;25.380;2022-11-04T00:08:54;98622.78;;;11.77;61.26
40850;BME280;26571;41.610;25.380;2022-11-04T00:11:21;98618.06;;;11.64;61.69
40850;BME280;26571;41.610;25.380;2022-11-04T00:14:06;98612.28;;;11.60;61.99
40850;BME280;26571;41.610;25.380;2022-11-04T00:16:31;98610.47;;;11.53;61.95
40850;BME280;26571;41.610;25.380;2022-11-04T00:19:16;98616.75;;;11.44;61.78
40850;BME280;26571;41.610;25.380;2022-11-04T00:21:41;98615.47;;;11.39;62.25
40850;BME280;26571;41.610;25.380;2022-11-04T00:24:25;98619.09;;;11.30;63.20
40850;BME280;26571;41.610;25.380;2022-11-04T00:27:13;98611.50;;;11.27;62.98
40850;BME280;26571;41.610;25.380;2022-11-04T00:29:57;98581.91;;;11.09;63.12
40850;BME280;26571;41.610;25.380;2022-11-04T00:32:23;98615.78;;;11.36;63.11
40850;BME280;26571;41.610;25.380;2022-11-04T00:35:09;98613.47;;;11.42;63.01
40850;BME280;26571;41.610;25.380;2022-11-04T00:37:36;98606.88;;;11.37;62.47
40850;BME280;26571;41.610;25.380;2022-11-04T00:40:02;98608.03;;;11.35;62.26
40850;BME280;26571;41.610;25.380;2022-11-04T00:42:28;98606.06;;;11.21;62.64
40850;BME280;26571;41.610;25.380;2022-11-04T00:44:53;98604.75;;;11.17;62.91
40850;BME280;26571;41.610;25.380;2022-11-04T00:47:18;98597.34;;;11.12;63.16
40850;BME280;26571;41.610;25.380;2022-11-04T00:49:44;98594.22;;;11.17;63.59
40850;BME280;26571;41.610;25.380;2022-11-04T00:52:09;98593.72;;;11.13;63.58
40850;BME280;26571;41.610;25.380;2022-11-04T00:54:35;98594.06;;;11.10;63.71
40850;BME280;26571;41.610;25.380;2022-11-04T00:57:00;98595.88;;;11.09;64.51
40850;BME280;26571;41.610;25.380;2022-11-04T00:59:25;98580.56;;;11.05;63.45
40850;BME280;26571;41.610;25.380;2022-11-04T01:01:51;98585.84;;;11.05;62.99
40850;BME280;26571;41.610;25.380;2022-11-04T01:04:16;98586.81;;;11.04;63.12
40850;BME280;26571;41.610;25.380;2022-11-04T01:06:42;98581.88;;;11.01;63.83
40850;BME280;26571;41.610;25.380;2022-11-04T01:09:07;98582.53;;;11.03;64.18
40850;BME280;26571;41.610;25.380;2022-11-04T01:11:33;98580.72;;;11.11;62.97
40850;BME280;26571;41.610;25.380;2022-11-04T01:14:00;98534.81;;;10.73;63.48
40850;BME280;26571;41.610;25.380;2022-11-04T01:16:26;98576.44;;;11.02;63.54
40850;BME280;26571;41.610;25.380;2022-11-04T01:18:52;98574.31;;;11.06;63.52
40850;BME280;26571;41.610;25.380;2022-11-04T01:21:17;98559.16;;;10.83;64.09
40850;BME280;26571;41.610;25.380;2022-11-04T01:23:43;98554.22;;;10.80;64.08
40850;BME280;26571;41.610;25.380;2022-11-04T01:26:15;98567.25;;;10.90;64.64
40850;BME280;26571;41.610;25.380;2022-11-04T01:28:41;98571.50;;;10.83;64.29
40850;BME280;26571;41.610;25.380;2022-11-04T01:33:33;98571.19;;;10.86;64.85
40850;BME280;26571;41.610;25.380;2022-11-04T01:35:59;98553.41;;;10.72;63.99
40850;BME280;26571;41.610;25.380;2022-11-04T01:38:25;98565.56;;;10.73;63.95
40850;BME280;26571;41.610;25.380;2022-11-04T01:40:51;98562.47;;;10.69;64.44
40850;BME280;26571;41.610;25.380;2022-11-04T01:43:19;98560.81;;;10.60;64.62
40850;BME280;26571;41.610;25.380;2022-11-04T01:45:54;98526.22;;;10.39;65.03
40850;BME280;26571;41.610;25.380;2022-11-04T01:48:25;98573.28;;;10.58;65.04
40850;BME280;26571;41.610;25.380;2022-11-04T01:50:52;98562.97;;;10.65;65.00
40850;BME280;26571;41.610;25.380;2022-11-04T01:53:25;98567.72;;;10.61;65.45
40850;BME280;26571;41.610;25.380;2022-11-04T01:55:54;98556.19;;;10.54;66.18
40850;BME280;26571;41.610;25.380;2022-11-04T01:58:22;98567.56;;;10.54;65.91
40850;BME280;26571;41.610;25.380;2022-11-04T02:00:50;98566.91;;;10.60;66.41
40850;BME280;26571;41.610;25.380;2022-11-04T02:03:47;98576.13;;;10.65;66.12
40850;BME280;26571;41.610;25.380;2022-11-04T02:06:10;98567.72;;;10.61;65.71
40850;BME280;26571;41.610;25.380;2022-11-04T02:08:37;98564.25;;;10.52;65.63
40850;BME280;26571;41.610;25.380;2022-11-04T02:11:03;98556.84;;;10.48;65.83
40850;BME280;26571;41.610;25.380;2022-11-04T02:13:30;98563.09;;;10.55;67.15
40850;BME280;26571;41.610;25.380;2022-11-04T02:38:09;98554.97;;;10.24;66.92
40850;BME280;26571;41.610;25.380;2022-11-04T02:51:18;98537.56;;;9.80;66.80
40850;BME280;26571;41.610;25.380;2022-11-04T02:56:18;98541.44;;;9.68;67.81
40850;BME280;26571;41.610;25.380;2022-11-04T02:59:00;98531.34;;;9.47;68.30
40850;BME280;26571;41.610;25.380;2022-11-04T03:01:32;98547.50;;;9.61;68.66
40850;BME280;26571;41.610;25.380;2022-11-04T03:04:20;98535.66;;;9.56;68.72
40850;BME280;26571;41.610;25.380;2022-11-04T03:06:50;98538.81;;;9.60;68.86
40850;BME280;26571;41.610;25.380;2022-11-04T03:09:18;98537.81;;;9.61;68.15
40850;BME280;26571;41.610;25.380;2022-11-04T03:11:49;98548.63;;;9.58;68.08
40850;BME280;26571;41.610;25.380;2022-11-04T03:14:19;98532.56;;;9.61;67.67
40850;BME280;26571;41.610;25.380;2022-11-04T03:16:49;98545.03;;;9.59;67.72
40850;BME280;26571;41.610;25.380;2022-11-04T03:19:29;98545.34;;;9.56;67.56
40850;BME280;26571;41.610;25.380;2022-11-04T03:22:04;98541.38;;;9.52;68.00
40850;BME280;26571;41.610;25.380;2022-11-04T03:24:32;98538.94;;;9.58;67.80
40850;BME280;26571;41.610;25.380;2022-11-04T03:27:00;98540.09;;;9.56;67.90
40850;BME280;26571;41.610;25.380;2022-11-04T03:30:02;98547.69;;;9.67;69.11
40850;BME280;26571;41.610;25.380;2022-11-04T03:35:46;98538.69;;;9.36;70.22
40850;BME280;26571;41.610;25.380;2022-11-04T03:38:12;98541.53;;;9.24;71.05
40850;BME280;26571;41.610;25.380;2022-11-04T03:40:37;98548.88;;;9.13;70.88
40850;BME280;26571;41.610;25.380;2022-11-04T03:43:16;98526.47;;;9.00;70.13
40850;BME280;26571;41.610;25.380;2022-11-04T03:45:44;98529.50;;;8.88;69.86
40850;BME280;26571;41.610;25.380;2022-11-04T03:48:10;98538.66;;;8.84;70.69
40850;BME280;26571;41.610;25.380;2022-11-04T03:50:42;98534.00;;;8.77;71.65
40850;BME280;26571;41.610;25.380;2022-11-04T03:53:09;98528.16;;;8.84;72.14
40850;BME280;26571;41.610;25.380;2022-11-04T03:55:53;98534.13;;;8.94;72.09
40850;BME280;26571;41.610;25.380;2022-11-04T04:00:52;98540.00;;;8.88;72.21
40850;BME280;26571;41.610;25.380;2022-11-04T04:03:28;98534.94;;;8.94;72.97
40850;BME280;26571;41.610;25.380;2022-11-04T04:06:09;98530.88;;;9.00;73.31
40850;BME280;26571;41.610;25.380;2022-11-04T04:08:42;98528.66;;;9.05;73.54
40850;BME280;26571;41.610;25.380;2022-11-04T04:14:36;98530.31;;;9.14;74.40
40850;BME280;26571;41.610;25.380;2022-11-04T04:17:20;98512.50;;;9.00;74.67
40850;BME280;26571;41.610;25.380;2022-11-04T04:20:02;98540.84;;;9.14;73.23
40850;BME280;26571;41.610;25.380;2022-11-04T04:22:33;98541.66;;;9.15;72.28
40850;BME280;26571;41.610;25.380;2022-11-04T04:25:03;98540.84;;;9.14;71.42
40850;BME280;26571;41.610;25.380;2022-11-04T04:27:50;98539.19;;;9.13;71.14
40850;BME280;26571;41.610;25.380;2022-11-04T04:30:17;98539.81;;;9.07;71.27
40850;BME280;26571;41.610;25.380;2022-11-04T04:35:10;98543.50;;;8.96;70.84
40850;BME280;26571;41.610;25.380;2022-11-04T04:37:57;98554.84;;;8.97;70.84
40850;BME280;26571;41.610;25.380;2022-11-04T04:40:49;98561.38;;;8.93;70.28
40850;BME280;26571;41.610;25.380;2022-11-04T04:43:36;98557.25;;;8.90;70.86
40850;BME280;26571;41.610;25.380;2022-11-04T04:46:22;98542.09;;;8.84;70.12
40850;BME280;26571;41.610;25.380;2022-11-04T04:48:48;98559.56;;;8.93;70.12
40850;BME280;26571;41.610;25.380;2022-11-04T04:51:13;98555.81;;;8.96;70.87
40850;BME280;26571;41.610;25.380;2022-11-04T04:53:39;98554.22;;;9.03;71.96
40850;BME280;26571;41.610;25.380;2022-11-04T04:56:04;98562.78;;;9.05;71.89
40850;BME280;26571;41.610;25.380;2022-11-04T04:58:30;98563.44;;;9.07;70.33
40850;BME280;26571;41.610;25.380;2022-11-04T05:00:55;98557.22;;;9.08;71.23
40850;BME280;26571;41.610;25.380;2022-11-04T05:03:20;98556.91;;;9.11;71.34
40850;BME280;26571;41.610;25.380;2022-11-04T05:05:48;98562.09;;;9.03;70.99
40850;BME280;26571;41.610;25.380;2022-11-04T05:08:13;98547.34;;;8.84;71.41
40850;BME280;26571;41.610;25.380;2022-11-04T05:10:41;98558.81;;;8.83;72.25
40850;BME280;26571;41.610;25.380;2022-11-04T05:13:06;98561.00;;;8.88;71.47
40850;BME280;26571;41.610;25.380;2022-11-04T05:15:50;98564.78;;;8.85;71.19
40850;BME280;26571;41.610;25.380;2022-11-04T05:18:16;98549.16;;;8.84;71.90
40850;BME280;26571;41.610;25.380;2022-11-04T05:20:42;98563.00;;;8.94;72.29
40850;BME280;26571;41.610;25.380;2022-11-04T05:23:07;98565.41;;;9.05;72.32
40850;BME280;26571;41.610;25.380;2022-11-04T05:25:36;98546.91;;;9.15;71.67
40850;BME280;26571;41.610;25.380;2022-11-04T05:28:01;98567.13;;;9.40;71.92
40850;BME280;26571;41.610;25.380;2022-11-04T05:30:27;98566.09;;;9.67;71.16
40850;BME280;26571;41.610;25.380;2022-11-04T05:32:52;98567.53;;;9.96;70.39
40850;BME280;26571;41.610;25.380;2022-11-04T05:35:18;98572.91;;;10.28;69.51
40850;BME280;26571;41.610;25.380;2022-11-04T05:37:43;98571.00;;;10.63;68.91
40850;BME280;26571;41.610;25.380;2022-11-04T05:40:09;98566.59;;;11.04;67.17
40850;BME280;26571;41.610;25.380;2022-11-04T05:42:35;98576.88;;;11.38;65.58
40850;BME280;26571;41.610;25.380;2022-11-04T05:45:01;98577.44;;;11.73;64.38
40850;BME280;26571;41.610;25.380;2022-11-04T05:47:26;98578.97;;;12.15;63.31
40850;BME280;26571;41.610;25.380;2022-11-04T05:49:52;98576.09;;;12.56;61.91
40850;BME280;26571;41.610;25.380;2022-11-04T05:52:17;98575.78;;;12.97;60.71
40850;BME280;26571;41.610;25.380;2022-11-04T05:54:43;98574.19;;;13.33;59.19
40850;BME280;26571;41.610;25.380;2022-11-04T05:57:09;98586.25;;;13.80;57.62
40850;BME280;26571;41.610;25.380;2022-11-04T05:59:34;98582.06;;;14.22;56.28
40850;BME280;26571;41.610;25.380;2022-11-04T06:02:01;98586.66;;;14.64;54.21
40850;BME280;26571;41.610;25.380;2022-11-04T06:04:26;98580.47;;;15.00;53.19
40850;BME280;26571;41.610;25.380;2022-11-04T06:06:52;98588.25;;;15.30;51.42
40850;BME280;26571;41.610;25.380;2022-11-04T06:09:17;98586.38;;;15.51;50.78
40850;BME280;26571;41.610;25.380;2022-11-04T06:11:43;98597.56;;;15.75;50.11
40850;BME280;26571;41.610;25.380;2022-11-04T06:14:09;98584.22;;;15.96;49.77
40850;BME280;26571;41.610;25.380;2022-11-04T06:16:35;98605.16;;;16.19;48.91
40850;BME280;26571;41.610;25.380;2022-11-04T06:19:00;98596.63;;;16.37;48.27
40850;BME280;26571;41.610;25.380;2022-11-04T06:21:31;98589.91;;;16.41;48.18
40850;BME280;26571;41.610;25.380;2022-11-04T06:23:57;98609.34;;;16.55;48.07
40850;BME280;26571;41.610;25.380;2022-11-04T06:26:27;98604.53;;;16.85;47.17
40850;BME280;26571;41.610;25.380;2022-11-04T06:28:56;98598.03;;;17.08;46.16
40850;BME280;26571;41.610;25.380;2022-11-04T06:31:21;98590.66;;;17.23;46.05
40850;BME280;26571;41.610;25.380;2022-11-04T06:33:47;98575.09;;;17.20;45.78
40850;BME280;26571;41.610;25.380;2022-11-04T06:36:14;98593.09;;;17.44;45.16
40850;BME280;26571;41.610;25.380;2022-11-04T06:38:43;98591.06;;;17.20;45.29
40850;BME280;26571;41.610;25.380;2022-11-04T06:41:13;98593.53;;;17.28;45.72
40850;BME280;26571;41.610;25.380;2022-11-04T06:43:39;98594.34;;;17.35;45.36
40850;BME280;26571;41.610;25.380;2022-11-04T06:48:55;98604.56;;;17.51;45.20
40850;BME280;26571;41.610;25.380;2022-11-04T06:51:21;98601.28;;;17.63;45.41
40850;BME280;26571;41.610;25.380;2022-11-04T06:53:47;98596.16;;;17.68;44.84
40850;BME280;26571;41.610;25.380;2022-11-04T06:56:32;98592.69;;;17.80;44.85
40850;BME280;26571;41.610;25.380;2022-11-04T06:59:05;98597.38;;;17.72;45.00
40850;BME280;26571;41.610;25.380;2022-11-04T07:01:33;98590.59;;;17.69;45.01
40850;BME280;26571;41.610;25.380;2022-11-04T07:03:59;98600.03;;;17.85;44.98
40850;BME280;26571;41.610;25.380;2022-11-04T07:06:27;98554.78;;;17.72;44.53
40850;BME280;26571;41.610;25.380;2022-11-04T07:09:00;98599.16;;;18.04;44.24
40850;BME280;26571;41.610;25.380;2022-11-04T07:11:27;98595.22;;;18.20;44.56
40850;BME280;26571;41.610;25.380;2022-11-04T07:13:53;98594.09;;;18.34;44.18
40850;BME280;26571;41.610;25.380;2022-11-04T07:16:19;98588.09;;;18.52;43.84
40850;BME280;26571;41.610;25.380;2022-11-04T07:18:44;98594.31;;;18.78;43.47
40850;BME280;26571;41.610;25.380;2022-11-04T07:21:10;98587.63;;;18.94;43.30
40850;BME280;26571;41.610;25.380;2022-11-04T07:23:37;98588.75;;;19.11;42.59
40850;BME280;26571;41.610;25.380;2022-11-04T07:26:05;98580.59;;;19.06;43.06
40850;BME280;26571;41.610;25.380;2022-11-04T07:28:31;98584.16;;;19.18;43.19
40850;BME280;26571;41.610;25.380;2022-11-04T07:30:58;98586.09;;;19.36;43.25
40850;BME280;26571;41.610;25.380;2022-11-04T07:33:25;98574.69;;;19.47;42.42
40850;BME280;26571;41.610;25.380;2022-11-04T07:35:51;98572.25;;;19.21;42.10
40850;BME280;26571;41.610;25.380;2022-11-04T07:38:17;98554.66;;;18.88;42.89
40850;BME280;26571;41.610;25.380;2022-11-04T07:40:43;98572.41;;;19.01;43.43
40850;BME280;26571;41.610;25.380;2022-11-04T07:43:08;98571.75;;;18.80;43.56
40850;BME280;26571;41.610;25.380;2022-11-04T07:45:34;98557.66;;;18.98;43.31
40850;BME280;26571;41.610;25.380;2022-11-04T07:47:59;98560.16;;;18.93;43.60
40850;BME280;26571;41.610;25.380;2022-11-04T07:50:24;98550.59;;;18.79;43.49
40850;BME280;26571;41.610;25.380;2022-11-04T07:52:50;98557.16;;;19.08;43.26
40850;BME280;26571;41.610;25.380;2022-11-04T07:55:16;98550.84;;;19.27;42.84
40850;BME280;26571;41.610;25.380;2022-11-04T07:57:46;98546.75;;;19.50;42.39
40850;BME280;26571;41.610;25.380;2022-11-04T08:00:13;98529.59;;;19.14;42.74
40850;BME280;26571;41.610;25.380;2022-11-04T08:02:40;98520.09;;;19.00;42.49
40850;BME280;26571;41.610;25.380;2022-11-04T08:05:06;98546.78;;;19.25;42.99
40850;BME280;26571;41.610;25.380;2022-11-04T08:07:32;98541.28;;;19.20;42.11
40850;BME280;26571;41.610;25.380;2022-11-04T08:09:57;98541.69;;;19.17;42.61
40850;BME280;26571;41.610;25.380;2022-11-04T08:12:23;98539.28;;;19.33;42.97
40850;BME280;26571;41.610;25.380;2022-11-04T08:14:49;98538.66;;;19.56;42.63
40850;BME280;26571;41.610;25.380;2022-11-04T08:17:15;98538.84;;;19.80;41.88
40850;BME280;26571;41.610;25.380;2022-11-04T08:19:41;98528.88;;;19.87;41.63
40850;BME280;26571;41.610;25.380;2022-11-04T08:22:06;98525.16;;;19.88;40.97
40850;BME280;26571;41.610;25.380;2022-11-04T08:24:32;98520.00;;;19.75;41.09
40850;BME280;26571;41.610;25.380;2022-11-04T08:26:58;98512.72;;;19.63;41.69
40850;BME280;26571;41.610;25.380;2022-11-04T08:29:23;98507.97;;;19.66;41.58
40850;BME280;26571;41.610;25.380;2022-11-04T08:31:49;98505.44;;;19.71;42.01
40850;BME280;26571;41.610;25.380;2022-11-04T08:34:14;98505.13;;;19.79;41.33
40850;BME280;26571;41.610;25.380;2022-11-04T08:36:43;98501.66;;;19.78;41.57
40850;BME280;26571;41.610;25.380;2022-11-04T08:39:09;98502.53;;;19.91;41.22
40850;BME280;26571;41.610;25.380;2022-11-04T08:41:36;98495.47;;;19.96;41.36
40850;BME280;26571;41.610;25.380;2022-11-04T08:44:02;98496.94;;;20.10;41.31
40850;BME280;26571;41.610;25.380;2022-11-04T08:46:32;98488.00;;;20.17;40.95
40850;BME280;26571;41.610;25.380;2022-11-04T08:48:57;98481.44;;;20.31;41.25
40850;BME280;26571;41.610;25.380;2022-11-04T08:51:24;98479.03;;;20.41;41.05
40850;BME280;26571;41.610;25.380;2022-11-04T08:53:50;98484.13;;;20.43;40.89
40850;BME280;26571;41.610;25.380;2022-11-04T08:56:19;98473.03;;;20.57;40.08
40850;BME280;26571;41.610;25.380;2022-11-04T08:58:45;98468.75;;;20.56;40.01
40850;BME280;26571;41.610;25.380;2022-11-04T09:01:11;98462.81;;;20.54;40.11
40850;BME280;26571;41.610;25.380;2022-11-04T09:03:37;98463.63;;;20.55;40.57
40850;BME280;26571;41.610;25.380;2022-11-04T09:06:06;98456.41;;;20.55;40.35
40850;BME280;26571;41.610;25.380;2022-11-04T09:08:31;98447.03;;;20.76;40.19
40850;BME280;26571;41.610;25.380;2022-11-04T09:10:57;98439.13;;;20.81;39.11
40850;BME280;26571;41.610;25.380;2022-11-04T09:13:22;98428.63;;;20.68;39.17
40850;BME280;26571;41.610;25.380;2022-11-04T09:15:47;98433.75;;;20.81;39.34
40850;BME280;26571;41.610;25.380;2022-11-04T09:18:13;98424.47;;;20.96;38.64
40850;BME280;26571;41.610;25.380;2022-11-04T09:20:39;98425.38;;;21.01;38.53
40850;BME280;26571;41.610;25.380;2022-11-04T09:23:08;98424.91;;;21.16;38.30
40850;BME280;26571;41.610;25.380;2022-11-04T09:25:34;98424.22;;;21.09;38.35
40850;BME280;26571;41.610;25.380;2022-11-04T09:28:00;98417.22;;;21.20;38.78
40850;BME280;26571;41.610;25.380;2022-11-04T09:30:25;98383.28;;;20.85;38.83
40850;BME280;26571;41.610;25.380;2022-11-04T09:32:51;98414.34;;;21.09;39.09
40850;BME280;26571;41.610;25.380;2022-11-04T09:35:16;98373.03;;;20.82;40.01
40850;BME280;26571;41.610;25.380;2022-11-04T09:37:42;98396.16;;;21.11;39.92
40850;BME280;26571;41.610;25.380;2022-11-04T09:40:20;98397.28;;;21.27;39.65
40850;BME280;26571;41.610;25.380;2022-11-04T09:45:15;98379.84;;;21.36;39.12
40850;BME280;26571;41.610;25.380;2022-11-04T09:47:44;98369.69;;;21.50;38.79
40850;BME280;26571;41.610;25.380;2022-11-04T09:50:23;98378.25;;;21.64;38.08
40850;BME280;26571;41.610;25.380;2022-11-04T09:53:22;98366.81;;;21.40;38.38
40850;BME280;26571;41.610;25.380;2022-11-04T09:55:57;98359.13;;;21.32;38.47
40850;BME280;26571;41.610;25.380;2022-11-04T09:58:24;98352.16;;;21.07;39.10
40850;BME280;26571;41.610;25.380;2022-11-04T10:00:57;98346.97;;;21.01;39.61
40850;BME280;26571;41.610;25.380;2022-11-04T10:06:34;98344.13;;;21.07;39.35
40850;BME280;26571;41.610;25.380;2022-11-04T10:17:38;98300.13;;;21.55;39.33
40850;BME280;26571;41.610;25.380;2022-11-04T10:20:09;98295.91;;;21.59;39.36
40850;BME280;26571;41.610;25.380;2022-11-04T10:23:01;98292.97;;;21.44;39.94
40850;BME280;26571;41.610;25.380;2022-11-04T10:25:46;98266.25;;;21.21;40.07
40850;BME280;26571;41.610;25.380;2022-11-04T10:28:16;98286.47;;;21.28;40.69
40850;BME280;26571;41.610;25.380;2022-11-04T10:30:47;98287.19;;;21.24;41.57
40850;BME280;26571;41.610;25.380;2022-11-04T10:33:32;98259.50;;;21.18;41.27
40850;BME280;26571;41.610;25.380;2022-11-04T10:36:05;98271.66;;;21.09;42.08
40850;BME280;26571;41.610;25.380;2022-11-04T10:38:52;98260.22;;;21.13;42.40
40850;BME280;26571;41.610;25.380;2022-11-04T10:43:58;98247.63;;;20.85;42.71
40850;BME280;26571;41.610;25.380;2022-11-04T10:49:03;98238.78;;;20.85;42.76
40850;BME280;26571;41.610;25.380;2022-11-04T10:51:30;98228.94;;;20.74;43.05
40850;BME280;26571;41.610;25.380;2022-11-04T10:53:58;98240.56;;;20.79;43.45
40850;BME280;26571;41.610;25.380;2022-11-04T10:58:53;98221.28;;;20.65;43.78
40850;BME280;26571;41.610;25.380;2022-11-04T11:01:31;98211.84;;;20.75;43.19
40850;BME280;26571;41.610;25.380;2022-11-04T11:03:59;98214.50;;;20.75;43.84
40850;BME280;26571;41.610;25.380;2022-11-04T11:06:28;98213.56;;;20.81;43.34
40850;BME280;26571;41.610;25.380;2022-11-04T11:09:00;98206.81;;;20.78;43.32
40850;BME280;26571;41.610;25.380;2022-11-04T11:11:42;98200.63;;;20.89;43.46
40850;BME280;26571;41.610;25.380;2022-11-04T11:19:59;98182.78;;;21.24;43.50
40850;BME280;26571;41.610;25.380;2022-11-04T11:22:33;98182.81;;;21.12;43.64
40850;BME280;26571;41.610;25.380;2022-11-04T11:28:00;98168.81;;;20.93;44.88
40850;BME280;26571;41.610;25.380;2022-11-04T11:30:34;98165.16;;;20.82;45.81
40850;BME280;26571;41.610;25.380;2022-11-04T11:33:15;98167.22;;;20.92;45.59
40850;BME280;26571;41.610;25.380;2022-11-04T11:35:51;98165.41;;;20.81;45.59
40850;BME280;26571;41.610;25.380;2022-11-04T11:38:21;98155.41;;;20.76;46.25
40850;BME280;26571;41.610;25.380;2022-11-04T11:40:48;98139.59;;;20.75;46.27
40850;BME280;26571;41.610;25.380;2022-11-04T11:45:48;98141.13;;;20.71;46.08
40850;BME280;26571;41.610;25.380;2022-11-04T11:50:58;98129.31;;;20.55;46.51
40850;BME280;26571;41.610;25.380;2022-11-04T11:53:26;98129.31;;;20.55;46.93
40850;BME280;26571;41.610;25.380;2022-11-04T11:56:26;98122.13;;;20.55;46.99
40850;BME280;26571;41.610;25.380;2022-11-04T12:04:49;98100.31;;;20.63;46.70
40850;BME280;26571;41.610;25.380;2022-11-04T12:07:49;98100.09;;;20.65;46.97
40850;BME280;26571;41.610;25.380;2022-11-04T12:10:33;98097.53;;;20.58;46.66
40850;BME280;26571;41.610;25.380;2022-11-04T12:18:31;98087.81;;;20.52;47.08
40850;BME280;26571;41.610;25.380;2022-11-04T12:21:08;98076.31;;;20.52;47.32
40850;BME280;26571;41.610;25.380;2022-11-04T12:23:55;98073.88;;;20.50;46.78
40850;BME280;26571;41.610;25.380;2022-11-04T12:29:29;98069.72;;;20.31;47.74
40850;BME280;26571;41.610;25.380;2022-11-04T12:35:25;98043.88;;;20.20;47.78
40850;BME280;26571;41.610;25.380;2022-11-04T12:40:47;98061.06;;;20.52;47.68
40850;BME280;26571;41.610;25.380;2022-11-04T12:43:25;98050.56;;;20.62;47.71
40850;BME280;26571;41.610;25.380;2022-11-04T12:56:37;98031.72;;;20.86;47.11
40850;BME280;26571;41.610;25.380;2022-11-04T13:01:58;98041.94;;;21.06;46.49
40850;BME280;26571;41.610;25.380;2022-11-04T13:04:39;98038.38;;;21.00;45.94
40850;BME280;26571;41.610;25.380;2022-11-04T13:07:12;98035.63;;;20.95;46.65
40850;BME280;26571;41.610;25.380;2022-11-04T13:09:47;98048.66;;;20.91;46.86
40850;BME280;26571;41.610;25.380;2022-11-04T13:12:17;98041.34;;;20.87;46.95
40850;BME280;26571;41.610;25.380;2022-11-04T13:14:47;98038.84;;;20.80;47.31
40850;BME280;26571;41.610;25.380;2022-11-04T13:17:19;98032.19;;;20.83;47.36
40850;BME280;26571;41.610;25.380;2022-11-04T13:19:49;98034.56;;;20.79;47.60
40850;BME280;26571;41.610;25.380;2022-11-04T13:22:36;98031.97;;;20.84;47.45
40850;BME280;26571;41.610;25.380;2022-11-04T13:27:41;98024.41;;;20.81;46.64
40850;BME280;26571;41.610;25.380;2022-11-04T13:30:22;98024.66;;;20.80;46.64
40850;BME280;26571;41.610;25.380;2022-11-04T13:33:11;98038.69;;;20.87;45.86
40850;BME280;26571;41.610;25.380;2022-11-04T13:39:04;98036.84;;;21.04;44.31
40850;BME280;26571;41.610;25.380;2022-11-04T13:41:46;98030.31;;;21.17;43.28
40850;BME280;26571;41.610;25.380;2022-11-04T13:44:28;98024.97;;;21.17;43.22
40850;BME280;26571;41.610;25.380;2022-11-04T13:46:58;98026.91;;;21.22;43.37
40850;BME280;26571;41.610;25.380;2022-11-04T13:49:34;98019.78;;;21.27;43.55
40850;BME280;26571;41.610;25.380;2022-11-04T13:52:11;98019.53;;;21.29;43.63
40850;BME280;26571;41.610;25.380;2022-11-04T13:57:18;98017.19;;;21.32;43.28
40850;BME280;26571;41.610;25.380;2022-11-04T14:02:53;98018.00;;;21.16;44.18
40850;BME280;26571;41.610;25.380;2022-11-04T14:18:29;98019.63;;;21.00;46.95
40850;BME280;26571;41.610;25.380;2022-11-04T14:21:08;98020.63;;;20.94;47.28
40850;BME280;26571;41.610;25.380;2022-11-04T14:23:36;97993.28;;;20.75;47.25
40850;BME280;26571;41.610;25.380;2022-11-04T14:26:13;98005.13;;;20.79;47.55
40850;BME280;26571;41.610;25.380;2022-11-04T14:28:42;97992.22;;;20.59;47.56
40850;BME280;26571;41.610;25.380;2022-11-04T14:31:10;98014.84;;;20.69;47.91
40850;BME280;26571;41.610;25.380;2022-11-04T14:33:58;98023.81;;;20.62;48.42
40850;BME280;26571;41.610;25.380;2022-11-04T14:36:40;97974.69;;;20.23;48.88
40850;BME280;26571;41.610;25.380;2022-11-04T14:41:48;98013.34;;;20.32;49.67
40850;BME280;26571;41.610;25.380;2022-11-04T14:44:19;98015.97;;;20.16;50.46
40850;BME280;26571;41.610;25.380;2022-11-04T14:46:51;98025.31;;;20.01;50.89
40850;BME280;26571;41.610;25.380;2022-11-04T14:54:46;98012.59;;;19.68;52.71
40850;BME280;26571;41.610;25.380;2022-11-04T14:59:43;98015.72;;;19.53;53.60
40850;BME280;26571;41.610;25.380;2022-11-04T15:02:23;98009.97;;;19.45;53.66
40850;BME280;26571;41.610;25.380;2022-11-04T15:04:53;97996.84;;;19.20;53.81
40850;BME280;26571;41.610;25.380;2022-11-04T15:07:23;97999.75;;;19.18;54.71
40850;BME280;26571;41.610;25.380;2022-11-04T15:09:49;98021.31;;;19.17;55.30
40850;BME280;26571;41.610;25.380;2022-11-04T15:12:17;98022.72;;;19.07;55.77
40850;BME280;26571;41.610;25.380;2022-11-04T15:15:18;98026.31;;;19.01;55.61
40850;BME280;26571;41.610;25.380;2022-11-04T15:17:47;98027.81;;;18.97;55.56
40850;BME280;26571;41.610;25.380;2022-11-04T15:20:22;98026.06;;;18.91;55.94
40850;BME280;26571;41.610;25.380;2022-11-04T15:22:48;98024.75;;;18.82;56.18
40850;BME280;26571;41.610;25.380;2022-11-04T15:25:14;98016.63;;;18.77;56.62
40850;BME280;26571;41.610;25.380;2022-11-04T15:27:40;98020.78;;;18.73;56.50
40850;BME280;26571;41.610;25.380;2022-11-04T15:30:21;98022.91;;;18.71;56.74
40850;BME280;26571;41.610;25.380;2022-11-04T15:33:02;98026.59;;;18.70;56.75
40850;BME280;26571;41.610;25.380;2022-11-04T15:35:30;98031.31;;;18.68;57.00
40850;BME280;26571;41.610;25.380;2022-11-04T15:37:58;98024.34;;;18.67;57.19
40850;BME280;26571;41.610;25.380;2022-11-04T15:40:26;98028.50;;;18.63;57.41
40850;BME280;26571;41.610;25.380;2022-11-04T15:42:53;98027.13;;;18.60;57.52
40850;BME280;26571;41.610;25.380;2022-11-04T15:48:25;98024.41;;;18.48;57.84
40850;BME280;26571;41.610;25.380;2022-11-04T15:53:25;98015.56;;;18.36;58.10